createdAt,value
2023-01-20T00:01:39.051Z,7.70
2023-01-20T00:04:08.382Z,7.80
2023-01-20T00:06:40.631Z,7.35
2023-01-20T00:09:16.912Z,7.57
2023-01-20T00:11:45.458Z,8.15
2023-01-20T00:14:18.722Z,7.93
2023-01-20T00:16:45.712Z,8.70
2023-01-20T00:19:17.016Z,7.88
2023-01-20T00:21:44.410Z,8.35
2023-01-20T00:24:11.766Z,7.90
2023-01-20T00:26:39.164Z,8.48
2023-01-20T00:29:06.609Z,7.85
2023-01-20T00:31:33.847Z,9.00
2023-01-20T00:34:01.635Z,8.20
2023-01-20T00:36:36.717Z,8.90
2023-01-20T00:39:04.485Z,9.00
2023-01-20T00:41:31.602Z,7.85
2023-01-20T00:43:58.570Z,8.82
2023-01-20T00:46:26.276Z,7.90
2023-01-20T00:48:53.288Z,7.82
2023-01-20T00:51:20.271Z,7.20
2023-01-20T00:53:47.501Z,7.15
2023-01-20T00:56:17.268Z,7.30
2023-01-20T00:58:45.640Z,7.50
2023-01-20T01:01:18.809Z,6.80
2023-01-20T01:03:46.500Z,7.57
2023-01-20T01:06:16.223Z,7.72
2023-01-20T01:09:01.596Z,6.47
2023-01-20T01:11:44.307Z,7.65
2023-01-20T01:14:17.829Z,7.20
2023-01-20T01:16:45.555Z,7.45
2023-01-20T01:19:14.704Z,6.72
2023-01-20T01:21:44.285Z,6.15
2023-01-20T01:24:11.795Z,7.10
2023-01-20T01:26:40.940Z,6.80
2023-01-20T01:29:08.235Z,7.40
2023-01-20T01:31:35.306Z,7.57
2023-01-20T01:34:02.458Z,7.50
2023-01-20T01:36:32.429Z,7.47
2023-01-20T01:39:01.900Z,5.85
2023-01-20T01:41:32.633Z,5.75
2023-01-20T01:44:04.477Z,6.15
2023-01-20T01:46:32.396Z,6.38
2023-01-20T01:49:02.979Z,7.10
2023-01-20T01:51:35.361Z,6.85
2023-01-20T01:54:21.036Z,7.80
2023-01-20T01:56:49.319Z,7.82
2023-01-20T01:59:17.217Z,7.47
2023-01-20T02:01:51.646Z,7.90
2023-01-20T02:04:34.372Z,7.65
2023-01-20T02:07:21.715Z,7.85
2023-01-20T02:09:56.309Z,7.22
2023-01-20T02:12:23.314Z,6.90
2023-01-20T02:14:54.144Z,7.93
2023-01-20T02:17:35.344Z,7.05
2023-01-20T02:20:17.537Z,7.10
2023-01-20T02:22:59.316Z,7.63
2023-01-20T02:25:47.299Z,7.47
2023-01-20T02:28:29.480Z,7.00
2023-01-20T02:31:15.021Z,7.22
2023-01-20T02:34:04.310Z,7.88
2023-01-20T02:36:44.889Z,7.95
2023-01-20T02:39:27.517Z,7.50
2023-01-20T02:42:00.614Z,7.88
2023-01-20T02:44:54.259Z,8.35
2023-01-20T02:47:24.439Z,7.75
2023-01-20T02:49:59.551Z,7.53
2023-01-20T02:52:28.859Z,8.35
2023-01-20T02:55:01.069Z,7.82
2023-01-20T02:57:34.473Z,7.38
2023-01-20T03:00:07.644Z,7.93
2023-01-20T03:02:37.932Z,8.52
2023-01-20T03:05:12.745Z,8.75
2023-01-20T03:07:42.078Z,7.80
2023-01-20T03:10:13.342Z,8.65
2023-01-20T03:12:53.334Z,8.88
2023-01-20T03:15:25.400Z,8.45
2023-01-20T03:17:52.840Z,8.85
2023-01-20T03:20:19.856Z,8.93
2023-01-20T03:22:52.352Z,8.65
2023-01-20T03:25:20.776Z,9.55
2023-01-20T03:27:48.207Z,10.02
2023-01-20T03:30:18.994Z,9.68
2023-01-20T03:32:50.538Z,10.48
2023-01-20T03:35:18.546Z,9.90
2023-01-20T03:37:45.998Z,11.25
2023-01-20T03:40:13.992Z,10.85
2023-01-20T03:43:03.629Z,12.15
2023-01-20T03:45:38.356Z,11.48
2023-01-20T03:48:17.957Z,10.98
2023-01-20T03:51:02.036Z,12.02
2023-01-20T03:53:46.521Z,11.48
2023-01-20T03:56:26.795Z,10.95
2023-01-20T03:58:54.977Z,12.32
2023-01-20T04:01:27.759Z,11.57
2023-01-20T04:03:55.349Z,13.38
2023-01-20T04:06:24.300Z,12.60
2023-01-20T04:09:00.814Z,12.23
2023-01-20T04:11:28.270Z,12.05
2023-01-20T04:14:02.731Z,13.32
2023-01-20T04:16:29.801Z,12.93
2023-01-20T04:18:57.365Z,12.13
2023-01-20T04:21:35.153Z,13.88
2023-01-20T04:24:08.191Z,13.90
2023-01-20T04:26:37.303Z,12.98
2023-01-20T04:29:11.902Z,12.85
2023-01-20T04:31:50.236Z,12.32
2023-01-20T04:34:17.419Z,13.15
2023-01-20T04:36:47.947Z,12.77
2023-01-20T04:39:17.615Z,13.05
2023-01-20T04:41:51.062Z,12.85
2023-01-20T04:44:20.932Z,12.80
2023-01-20T04:46:48.533Z,12.73
2023-01-20T04:49:15.585Z,12.00
2023-01-20T04:51:44.755Z,12.18
2023-01-20T04:54:14.424Z,11.98
2023-01-20T04:56:44.559Z,11.55
2023-01-20T04:59:11.493Z,12.50
2023-01-20T05:01:38.991Z,13.00
2023-01-20T05:04:09.286Z,13.02
2023-01-20T05:06:45.657Z,13.95
2023-01-20T05:09:18.579Z,13.20
2023-01-20T05:11:45.278Z,14.13
2023-01-20T05:14:15.284Z,13.75
2023-01-20T05:16:43.259Z,14.40
2023-01-20T05:19:12.961Z,13.10
2023-01-20T05:21:40.401Z,13.20
2023-01-20T05:24:08.400Z,13.32
2023-01-20T05:26:35.718Z,14.25
2023-01-20T05:29:03.064Z,13.27
2023-01-20T05:31:35.156Z,14.05
2023-01-20T05:34:05.290Z,12.70
2023-01-20T05:36:34.042Z,12.98
2023-01-20T05:39:00.870Z,12.75
2023-01-20T05:41:27.736Z,13.25
2023-01-20T05:43:57.132Z,12.68
2023-01-20T05:46:24.583Z,12.40
2023-01-20T05:48:51.726Z,14.15
2023-01-20T05:51:19.291Z,12.88
2023-01-20T05:53:47.261Z,12.93
2023-01-20T05:56:18.892Z,13.23
2023-01-20T05:58:48.242Z,13.30
2023-01-20T06:01:15.559Z,14.05
2023-01-20T06:03:43.042Z,13.60
2023-01-20T06:06:18.501Z,14.30
2023-01-20T06:08:45.935Z,14.15
2023-01-20T06:11:15.593Z,13.65
2023-01-20T06:13:42.707Z,14.10
2023-01-20T06:16:14.376Z,13.63
2023-01-20T06:18:41.183Z,13.98
2023-01-20T06:21:08.258Z,14.02
2023-01-20T06:23:37.642Z,14.77
2023-01-20T06:26:06.921Z,13.05
2023-01-20T06:28:34.852Z,14.73
2023-01-20T06:31:09.718Z,14.93
2023-01-20T06:33:36.779Z,15.52
2023-01-20T06:36:07.854Z,15.23
2023-01-20T06:38:35.859Z,14.50
2023-01-20T06:41:05.736Z,14.70
2023-01-20T06:43:34.245Z,14.88
2023-01-20T06:46:07.366Z,14.75
2023-01-20T06:48:34.779Z,14.40
2023-01-20T06:51:10.683Z,14.85
2023-01-20T06:53:37.940Z,15.95
2023-01-20T06:56:04.879Z,14.73
2023-01-20T06:58:33.663Z,15.35
2023-01-20T07:01:22.765Z,17.23
2023-01-20T07:03:50.100Z,14.77
2023-01-20T07:06:26.446Z,15.55
2023-01-20T07:08:58.662Z,15.65
2023-01-20T07:11:26.477Z,15.55
2023-01-20T07:13:53.567Z,16.38
2023-01-20T07:16:20.839Z,15.30
2023-01-20T07:18:49.200Z,17.02
2023-01-20T07:21:16.420Z,15.60
2023-01-20T07:23:43.576Z,15.50
2023-01-20T07:26:13.172Z,14.55
2023-01-20T07:28:40.540Z,14.75
2023-01-20T07:31:12.726Z,15.30
2023-01-20T07:33:40.287Z,14.82
2023-01-20T07:36:08.515Z,14.48
2023-01-20T07:38:37.804Z,14.68
2023-01-20T07:41:09.466Z,14.98
2023-01-20T07:43:38.758Z,15.63
2023-01-20T07:46:05.597Z,15.77
2023-01-20T07:48:33.990Z,15.88
2023-01-20T07:51:09.888Z,15.50
2023-01-20T07:53:38.734Z,14.93
2023-01-20T07:56:12.387Z,16.05
2023-01-20T07:58:39.539Z,16.95
2023-01-20T08:01:11.867Z,15.77
2023-01-20T08:03:40.470Z,16.90
2023-01-20T08:06:09.796Z,16.85
2023-01-20T08:08:36.567Z,16.55
2023-01-20T08:11:04.017Z,16.40
2023-01-20T08:13:32.161Z,17.02
2023-01-20T08:16:03.974Z,15.98
2023-01-20T08:18:31.558Z,16.17
2023-01-20T08:20:59.096Z,16.38
2023-01-20T08:23:27.493Z,17.08
2023-01-20T08:26:02.747Z,17.15
2023-01-20T08:28:30.885Z,16.73
2023-01-20T08:31:27.866Z,17.02
2023-01-20T08:33:58.440Z,16.85
2023-01-20T08:36:28.816Z,17.48
2023-01-20T08:38:57.712Z,16.55
2023-01-20T08:41:27.495Z,18.67
2023-01-20T08:43:54.503Z,17.65
2023-01-20T08:46:24.572Z,17.90
2023-01-20T08:48:52.168Z,18.25
2023-01-20T08:51:37.442Z,17.70
2023-01-20T08:54:04.410Z,18.30
2023-01-20T08:56:31.899Z,19.63
2023-01-20T08:59:00.525Z,18.52
2023-01-20T09:01:29.312Z,18.98
2023-01-20T09:04:05.508Z,17.77
2023-01-20T09:06:49.701Z,18.05
2023-01-20T09:09:18.671Z,17.65
2023-01-20T09:11:51.602Z,17.75
2023-01-20T09:14:23.264Z,19.50
2023-01-20T09:16:50.502Z,18.70
2023-01-20T09:19:17.430Z,17.02
2023-01-20T09:21:44.779Z,18.45
2023-01-20T09:24:12.009Z,16.92
2023-01-20T09:26:41.842Z,17.13
2023-01-20T09:29:12.231Z,16.30
2023-01-20T09:31:49.817Z,17.77
2023-01-20T09:34:21.937Z,16.83
2023-01-20T09:37:20.031Z,17.67
2023-01-20T09:40:22.558Z,17.05
2023-01-20T09:43:40.223Z,18.83
2023-01-20T09:46:14.583Z,17.67
2023-01-20T09:49:23.514Z,16.48
2023-01-20T09:52:20.299Z,16.00
2023-01-20T09:55:10.718Z,16.15
2023-01-20T09:57:40.667Z,17.40
2023-01-20T10:00:17.871Z,17.05
2023-01-20T10:02:48.368Z,17.27
2023-01-20T10:05:21.200Z,16.55
2023-01-20T10:07:56.710Z,17.73
2023-01-20T10:10:41.149Z,17.63
2023-01-20T10:13:22.218Z,17.33
2023-01-20T10:15:53.508Z,15.70
2023-01-20T10:18:30.571Z,18.02
2023-01-20T10:21:04.750Z,17.23
2023-01-20T10:23:42.804Z,16.85
2023-01-20T10:26:19.073Z,16.92
2023-01-20T10:29:14.671Z,18.10
2023-01-20T10:31:48.356Z,18.08
2023-01-20T10:34:22.869Z,15.88
2023-01-20T10:36:59.993Z,17.35
2023-01-20T10:39:39.355Z,17.27
2023-01-20T10:42:11.986Z,18.48
2023-01-20T10:44:39.129Z,18.30
2023-01-20T10:47:13.784Z,17.98
2023-01-20T10:49:58.739Z,18.38
2023-01-20T10:52:45.257Z,17.50
2023-01-20T10:55:38.809Z,16.75
2023-01-20T10:58:15.619Z,16.52
2023-01-20T11:00:43.342Z,17.58
2023-01-20T11:03:15.613Z,17.30
2023-01-20T11:05:43.625Z,18.85
2023-01-20T11:08:30.920Z,17.23
2023-01-20T11:11:01.619Z,16.30
2023-01-20T11:13:29.154Z,17.73
2023-01-20T11:16:02.334Z,17.75
2023-01-20T11:18:30.995Z,17.83
2023-01-20T11:21:04.396Z,17.50
2023-01-20T11:23:39.514Z,17.23
2023-01-20T11:26:21.245Z,16.73
2023-01-20T11:28:52.372Z,17.58
2023-01-20T11:31:19.848Z,15.70
2023-01-20T11:33:58.744Z,15.35
2023-01-20T11:36:27.458Z,16.83
2023-01-20T11:38:57.246Z,15.90
2023-01-20T11:41:28.492Z,16.98
2023-01-20T11:43:59.558Z,18.05
2023-01-20T11:46:37.557Z,19.83
2023-01-20T11:49:19.538Z,18.25
2023-01-20T11:51:56.948Z,17.38
2023-01-20T11:54:25.778Z,16.95
2023-01-20T11:57:05.197Z,16.77
2023-01-20T11:59:38.661Z,15.75
2023-01-20T12:02:20.955Z,15.55
2023-01-20T12:04:56.667Z,15.45
2023-01-20T12:07:29.480Z,16.50
2023-01-20T12:10:04.176Z,15.35
2023-01-20T12:12:40.475Z,16.00
2023-01-20T12:15:13.797Z,16.13
2023-01-20T12:17:48.893Z,16.27
2023-01-20T12:20:53.646Z,16.13
2023-01-20T12:23:52.561Z,16.27
2023-01-20T12:26:21.585Z,16.27
2023-01-20T12:28:53.889Z,17.20
2023-01-20T12:31:24.255Z,17.65
2023-01-20T12:33:57.010Z,16.92
2023-01-20T12:36:38.685Z,16.15
2023-01-20T12:39:19.056Z,14.80
2023-01-20T12:42:12.952Z,15.65
2023-01-20T12:44:51.233Z,14.95
2023-01-20T12:47:17.876Z,16.08
2023-01-20T12:50:17.811Z,15.68
2023-01-20T12:53:06.443Z,15.02
2023-01-20T12:55:49.170Z,15.05
2023-01-20T12:58:29.535Z,16.15
2023-01-20T13:01:27.012Z,16.27
2023-01-20T13:04:31.446Z,16.75
2023-01-20T13:07:35.861Z,15.25
2023-01-20T13:10:23.352Z,14.48
2023-01-20T13:13:00.039Z,15.60
2023-01-20T13:15:30.555Z,15.00
2023-01-20T13:18:07.559Z,15.35
2023-01-20T13:20:34.367Z,15.43
2023-01-20T13:23:05.978Z,16.20
2023-01-20T13:25:34.391Z,14.07
2023-01-20T13:28:01.357Z,16.48
2023-01-20T13:30:37.542Z,14.65
2023-01-20T13:33:08.605Z,14.95
2023-01-20T13:35:46.067Z,13.38
2023-01-20T13:38:30.917Z,14.15
2023-01-20T13:41:03.688Z,14.57
2023-01-20T13:43:42.900Z,12.88
2023-01-20T13:46:09.666Z,14.77
2023-01-20T13:48:39.265Z,14.82
2023-01-20T13:51:43.113Z,13.18
2023-01-20T13:54:28.070Z,12.32
2023-01-20T13:57:24.286Z,13.05
2023-01-20T13:59:51.226Z,13.20
2023-01-20T14:02:19.430Z,13.43
2023-01-20T14:04:46.747Z,13.30
2023-01-20T14:07:28.250Z,13.05
2023-01-20T14:09:56.586Z,13.10
2023-01-20T14:12:23.643Z,12.65
2023-01-20T14:14:55.217Z,13.95
2023-01-20T14:17:24.451Z,13.57
2023-01-20T14:19:53.655Z,14.70
2023-01-20T14:22:25.736Z,16.17
2023-01-20T14:24:57.377Z,14.35
2023-01-20T14:27:28.681Z,14.18
2023-01-20T14:29:57.511Z,14.43
2023-01-20T14:32:34.671Z,15.15
2023-01-20T14:35:02.663Z,15.30
2023-01-20T14:37:35.748Z,14.68
2023-01-20T14:40:46.500Z,15.07
2023-01-20T14:43:20.458Z,14.95
2023-01-20T14:45:49.220Z,14.80
2023-01-20T14:48:32.651Z,15.15
2023-01-20T14:51:02.798Z,14.52
2023-01-20T14:53:29.703Z,14.38
2023-01-20T14:56:11.033Z,13.88
2023-01-20T14:58:46.086Z,15.25
2023-01-20T15:01:20.660Z,13.82
2023-01-20T15:03:54.995Z,13.43
2023-01-20T15:06:22.658Z,14.07
2023-01-20T15:09:05.162Z,13.80
2023-01-20T15:11:33.075Z,14.73
2023-01-20T15:14:04.964Z,14.57
2023-01-20T15:16:40.078Z,13.90
2023-01-20T15:19:20.131Z,13.88
2023-01-20T15:22:10.162Z,14.32
2023-01-20T15:24:37.467Z,14.30
2023-01-20T15:27:23.686Z,14.80
2023-01-20T15:30:14.125Z,14.68
2023-01-20T15:32:41.245Z,14.85
2023-01-20T15:35:12.917Z,16.60
2023-01-20T15:37:40.838Z,16.33
2023-01-20T15:40:14.265Z,16.98
2023-01-20T15:42:42.228Z,15.48
2023-01-20T15:45:12.947Z,16.83
2023-01-20T15:47:39.900Z,17.02
2023-01-20T15:50:21.264Z,15.45
2023-01-20T15:52:48.462Z,15.65
2023-01-20T15:55:22.074Z,15.27
2023-01-20T15:57:51.843Z,16.80
2023-01-20T16:00:21.342Z,17.17
2023-01-20T16:02:48.283Z,17.38
2023-01-20T16:05:17.567Z,17.38
2023-01-20T16:07:44.867Z,16.70
2023-01-20T16:10:19.435Z,18.40
2023-01-20T16:12:46.814Z,16.58
2023-01-20T16:15:15.552Z,17.08
2023-01-20T16:17:42.575Z,16.98
2023-01-20T16:20:19.883Z,16.20
2023-01-20T16:22:46.729Z,17.05
2023-01-20T16:25:13.512Z,16.58
2023-01-20T16:27:40.227Z,16.50
2023-01-20T16:30:07.553Z,17.77
2023-01-20T16:32:34.305Z,17.38
2023-01-20T16:35:01.037Z,17.75
2023-01-20T16:37:27.788Z,17.85
2023-01-20T16:39:57.294Z,17.23
2023-01-20T16:42:25.923Z,17.35
2023-01-20T16:44:52.900Z,16.25
2023-01-20T16:47:19.602Z,17.08
2023-01-20T16:49:46.312Z,16.92
2023-01-20T16:52:14.228Z,18.02
2023-01-20T16:54:43.932Z,16.55
2023-01-20T16:57:10.737Z,17.33
2023-01-20T16:59:37.615Z,16.73
2023-01-20T17:02:04.503Z,19.45
2023-01-20T17:04:31.338Z,17.92
2023-01-20T17:06:58.003Z,17.23
2023-01-20T17:09:27.941Z,17.17
2023-01-20T17:11:54.847Z,17.77
2023-01-20T17:14:21.546Z,17.30
2023-01-20T17:16:48.460Z,17.33
2023-01-20T17:19:17.624Z,17.80
2023-01-20T17:21:44.621Z,15.98
2023-01-20T17:24:11.490Z,17.55
2023-01-20T17:26:38.776Z,16.95
2023-01-20T17:29:05.635Z,17.55
2023-01-20T17:31:38.053Z,16.17
2023-01-20T17:34:06.007Z,17.45
2023-01-20T17:36:39.396Z,16.13
2023-01-20T17:39:06.946Z,17.27
2023-01-20T17:41:36.795Z,16.92
2023-01-20T17:44:04.263Z,17.85
2023-01-20T17:46:31.750Z,16.83
2023-01-20T17:48:59.850Z,17.55
2023-01-20T17:51:28.209Z,16.60
2023-01-20T17:53:58.234Z,15.82
2023-01-20T17:56:25.354Z,17.33
2023-01-20T17:58:54.820Z,17.02
2023-01-20T18:01:26.589Z,15.88
2023-01-20T18:03:55.317Z,16.67
2023-01-20T18:06:23.642Z,15.18
2023-01-20T18:08:55.409Z,17.08
2023-01-20T18:11:26.201Z,18.02
2023-01-20T18:14:00.628Z,16.58
2023-01-20T18:16:29.380Z,16.83
2023-01-20T18:18:59.006Z,17.02
2023-01-20T18:21:30.719Z,16.85
2023-01-20T18:24:00.466Z,16.13
2023-01-20T18:26:32.104Z,15.82
2023-01-20T18:29:01.255Z,15.68
2023-01-20T18:31:29.278Z,15.18
2023-01-20T18:33:58.652Z,14.98
2023-01-20T18:36:49.308Z,16.15
2023-01-20T18:39:18.981Z,15.18
2023-01-20T18:41:46.030Z,15.48
2023-01-20T18:44:12.888Z,15.07
2023-01-20T18:46:39.727Z,14.15
2023-01-20T18:49:09.435Z,14.82
2023-01-20T18:51:36.458Z,14.63
2023-01-20T18:54:12.922Z,15.75
2023-01-20T18:56:40.279Z,15.45
2023-01-20T18:59:11.261Z,15.40
2023-01-20T19:01:40.207Z,15.43
2023-01-20T19:04:09.140Z,15.07
2023-01-20T19:06:38.220Z,15.63
2023-01-20T19:09:05.738Z,16.35
2023-01-20T19:11:36.093Z,16.73
2023-01-20T19:14:03.432Z,17.00
2023-01-20T19:16:33.224Z,15.52
2023-01-20T19:19:04.596Z,16.05
2023-01-20T19:21:32.848Z,16.00
2023-01-20T19:24:06.133Z,15.88
2023-01-20T19:26:35.833Z,15.77
2023-01-20T19:29:08.009Z,13.80
2023-01-20T19:31:37.811Z,14.50
2023-01-20T19:34:05.613Z,14.73
2023-01-20T19:36:33.949Z,13.45
2023-01-20T19:39:04.427Z,14.40
2023-01-20T19:41:36.311Z,14.20
2023-01-20T19:44:16.068Z,13.93
2023-01-20T19:46:45.199Z,13.55
2023-01-20T19:49:12.975Z,13.95
2023-01-20T19:51:42.188Z,14.93
2023-01-20T19:54:11.877Z,14.77
2023-01-20T19:56:38.830Z,14.68
2023-01-20T19:59:09.403Z,15.13
2023-01-20T20:01:40.236Z,14.85
2023-01-20T20:04:09.786Z,14.20
2023-01-20T20:06:38.468Z,15.23
2023-01-20T20:09:16.737Z,16.02
2023-01-20T20:11:44.150Z,15.02
2023-01-20T20:14:15.434Z,13.88
2023-01-20T20:16:42.390Z,13.25
2023-01-20T20:19:12.688Z,12.70
2023-01-20T20:21:39.827Z,13.43
2023-01-20T20:24:07.111Z,12.73
2023-01-20T20:26:36.503Z,12.82
2023-01-20T20:29:05.601Z,12.48
2023-01-20T20:31:34.470Z,14.27
2023-01-20T20:34:03.148Z,13.35
2023-01-20T20:36:31.267Z,14.75
2023-01-20T20:39:00.564Z,14.63
2023-01-20T20:41:29.322Z,14.57
2023-01-20T20:43:56.510Z,13.95
2023-01-20T20:46:24.903Z,12.40
2023-01-20T20:48:56.107Z,14.23
2023-01-20T20:51:24.681Z,12.93
2023-01-20T20:53:56.705Z,12.40
2023-01-20T20:56:28.283Z,12.98
2023-01-20T20:59:01.985Z,13.52
2023-01-20T21:01:31.519Z,13.70
2023-01-20T21:04:00.563Z,14.30
2023-01-20T21:06:27.651Z,13.60
2023-01-20T21:08:54.681Z,14.13
2023-01-20T21:11:21.795Z,13.15
2023-01-20T21:13:51.142Z,13.90
2023-01-20T21:16:22.406Z,12.55
2023-01-20T21:18:50.196Z,12.43
2023-01-20T21:21:17.334Z,13.23
2023-01-20T21:23:51.310Z,12.68
2023-01-20T21:26:18.185Z,13.57
2023-01-20T21:28:45.777Z,11.23
2023-01-20T21:31:14.666Z,12.82
2023-01-20T21:33:44.012Z,12.07
2023-01-20T21:36:12.580Z,11.95
2023-01-20T21:38:43.018Z,11.07
2023-01-20T21:41:10.727Z,12.57
2023-01-20T21:43:58.001Z,12.65
2023-01-20T21:46:25.352Z,11.57
2023-01-20T21:49:10.751Z,12.98
2023-01-20T21:51:56.066Z,12.50
2023-01-20T21:54:22.830Z,11.85
2023-01-20T21:56:51.560Z,12.18
2023-01-20T21:59:18.377Z,12.55
2023-01-20T22:01:45.489Z,11.80
2023-01-20T22:04:12.230Z,11.95
2023-01-20T22:06:39.040Z,11.40
2023-01-20T22:09:06.037Z,11.55
2023-01-20T22:11:32.767Z,12.23
2023-01-20T22:13:59.762Z,10.98
2023-01-20T22:16:26.649Z,12.00
2023-01-20T22:18:53.983Z,10.73
2023-01-20T22:21:22.523Z,9.60
2023-01-20T22:23:49.328Z,10.48
2023-01-20T22:26:16.084Z,11.10
2023-01-20T22:28:43.311Z,10.18
2023-01-20T22:31:12.812Z,9.55
2023-01-20T22:33:39.713Z,10.07
2023-01-20T22:36:06.751Z,9.93
2023-01-20T22:38:34.492Z,9.57
2023-01-20T22:41:05.488Z,9.50
2023-01-20T22:43:33.990Z,9.43
2023-01-20T22:46:04.346Z,8.45
2023-01-20T22:48:32.851Z,8.30
2023-01-20T22:51:10.781Z,9.20
2023-01-20T22:53:38.327Z,8.77
2023-01-20T22:56:20.003Z,9.05
2023-01-20T22:58:47.275Z,8.20
2023-01-20T23:01:16.669Z,9.75
2023-01-20T23:03:44.130Z,8.88
2023-01-20T23:06:11.747Z,9.50
2023-01-20T23:08:39.044Z,8.63
2023-01-20T23:11:13.062Z,9.07
2023-01-20T23:13:43.227Z,9.05
2023-01-20T23:16:22.583Z,8.75
2023-01-20T23:18:51.108Z,9.18
2023-01-20T23:21:20.338Z,8.95
2023-01-20T23:23:49.509Z,9.82
2023-01-20T23:26:18.499Z,8.48
2023-01-20T23:28:47.190Z,8.10
2023-01-20T23:31:16.172Z,9.27
2023-01-20T23:33:44.117Z,10.68
2023-01-20T23:36:13.891Z,9.30
2023-01-20T23:38:48.115Z,9.05
2023-01-20T23:41:15.447Z,8.15
2023-01-20T23:43:45.362Z,6.20
2023-01-20T23:46:12.361Z,7.95
2023-01-20T23:48:39.523Z,6.72
2023-01-20T23:51:07.268Z,7.72
2023-01-20T23:53:41.999Z,7.72
2023-01-20T23:56:22.438Z,6.78
2023-01-20T23:58:49.997Z,7.05
